sensor_id;sensor_type;location;lat;lon;timestamp;temperature;humidity
8824;DHT22;4448;50.904;4.694;2023-02-26T00:02:07;4.80;99.90
8824;DHT22;4448;50.904;4.694;2023-02-26T00:04:34;4.80;99.90
8824;DHT22;4448;50.904;4.694;2023-02-26T00:06:59;4.80;99.90
8824;DHT22;4448;50.904;4.694;2023-02-26T00:09:25;4.80;99.90
8824;DHT22;4448;50.904;4.694;2023-02-26T00:11:51;4.80;99.90
8824;DHT22;4448;50.904;4.694;2023-02-26T00:14:17;4.70;99.90
8824;DHT22;4448;50.904;4.694;2023-02-26T00:17:12;4.70;99.90
8824;DHT22;4448;50.904;4.694;2023-02-26T00:19:32;4.70;99.90
8824;DHT22;4448;50.904;4.694;2023-02-26T00:21:58;4.70;99.90
8824;DHT22;4448;50.904;4.694;2023-02-26T00:24:24;4.80;99.90
8824;DHT22;4448;50.904;4.694;2023-02-26T00:26:49;4.70;99.90
8824;DHT22;4448;50.904;4.694;2023-02-26T00:29:15;4.70;99.90
8824;DHT22;4448;50.904;4.694;2023-02-26T00:31:41;4.70;99.90
8824;DHT22;4448;50.904;4.694;2023-02-26T00:34:11;4.70;99.90
8824;DHT22;4448;50.904;4.694;2023-02-26T00:37:12;4.70;99.90
8824;DHT22;4448;50.904;4.694;2023-02-26T00:42:11;4.70;99.90
8824;DHT22;4448;50.904;4.694;2023-02-26T00:44:37;4.60;99.90
8824;DHT22;4448;50.904;4.694;2023-02-26T00:52:43;4.60;99.90
8824;DHT22;4448;50.904;4.694;2023-02-26T00:55:10;4.60;99.90
8824;DHT22;4448;50.904;4.694;2023-02-26T00:57:36;4.50;99.90
8824;DHT22;4448;50.904;4.694;2023-02-26T01:00:03;4.50;99.90
8824;DHT22;4448;50.904;4.694;2023-02-26T01:02:31;4.50;99.90
8824;DHT22;4448;50.904;4.694;2023-02-26T01:04:57;4.50;99.90
8824;DHT22;4448;50.904;4.694;2023-02-26T01:07:24;4.50;99.90
8824;DHT22;4448;50.904;4.694;2023-02-26T01:09:50;4.50;99.90
8824;DHT22;4448;50.904;4.694;2023-02-26T01:12:16;4.50;99.90
8824;DHT22;4448;50.904;4.694;2023-02-26T01:14:43;4.50;99.90
8824;DHT22;4448;50.904;4.694;2023-02-26T01:20:03;4.40;99.90
8824;DHT22;4448;50.904;4.694;2023-02-26T01:22:54;4.40;99.90
8824;DHT22;4448;50.904;4.694;2023-02-26T01:25:29;4.40;99.90
8824;DHT22;4448;50.904;4.694;2023-02-26T01:27:59;4.40;99.90
8824;DHT22;4448;50.904;4.694;2023-02-26T01:30:25;4.40;99.90
8824;DHT22;4448;50.904;4.694;2023-02-26T01:35:47;4.40;99.90
8824;DHT22;4448;50.904;4.694;2023-02-26T01:49:14;4.40;99.90
8824;DHT22;4448;50.904;4.694;2023-02-26T01:54:06;4.30;99.90
8824;DHT22;4448;50.904;4.694;2023-02-26T01:56:31;4.30;99.90
8824;DHT22;4448;50.904;4.694;2023-02-26T01:58:57;4.30;99.90
8824;DHT22;4448;50.904;4.694;2023-02-26T02:01:23;4.30;99.90
8824;DHT22;4448;50.904;4.694;2023-02-26T02:03:49;4.30;99.90
8824;DHT22;4448;50.904;4.694;2023-02-26T02:06:23;4.30;99.90
8824;DHT22;4448;50.904;4.694;2023-02-26T02:08:51;4.30;99.90
8824;DHT22;4448;50.904;4.694;2023-02-26T02:11:16;4.30;99.90
8824;DHT22;4448;50.904;4.694;2023-02-26T02:17:15;4.30;99.90
8824;DHT22;4448;50.904;4.694;2023-02-26T02:20:23;4.30;99.90
8824;DHT22;4448;50.904;4.694;2023-02-26T02:22:55;4.30;99.90
8824;DHT22;4448;50.904;4.694;2023-02-26T02:31:19;4.30;99.90
8824;DHT22;4448;50.904;4.694;2023-02-26T02:36:47;4.30;99.90
8824;DHT22;4448;50.904;4.694;2023-02-26T02:41:57;4.30;99.90
8824;DHT22;4448;50.904;4.694;2023-02-26T02:44:26;4.30;99.90
8824;DHT22;4448;50.904;4.694;2023-02-26T02:46:56;4.20;99.90
8824;DHT22;4448;50.904;4.694;2023-02-26T02:49:28;4.30;99.90
8824;DHT22;4448;50.904;4.694;2023-02-26T02:51:59;4.20;99.90
8824;DHT22;4448;50.904;4.694;2023-02-26T02:54:52;4.20;99.90
8824;DHT22;4448;50.904;4.694;2023-02-26T02:57:36;4.20;99.90
8824;DHT22;4448;50.904;4.694;2023-02-26T03:00:07;4.20;99.90
8824;DHT22;4448;50.904;4.694;2023-02-26T03:02:36;4.20;99.90
8824;DHT22;4448;50.904;4.694;2023-02-26T03:05:05;4.20;99.90
8824;DHT22;4448;50.904;4.694;2023-02-26T03:07:37;4.20;99.90
8824;DHT22;4448;50.904;4.694;2023-02-26T03:10:04;4.10;99.90
8824;DHT22;4448;50.904;4.694;2023-02-26T03:12:31;4.30;99.90
8824;DHT22;4448;50.904;4.694;2023-02-26T03:14:58;4.10;99.90
8824;DHT22;4448;50.904;4.694;2023-02-26T03:17:31;4.10;99.90
8824;DHT22;4448;50.904;4.694;2023-02-26T03:20:16;4.10;99.90
8824;DHT22;4448;50.904;4.694;2023-02-26T03:23:12;4.10;99.90
8824;DHT22;4448;50.904;4.694;2023-02-26T03:25:46;4.10;99.90
8824;DHT22;4448;50.904;4.694;2023-02-26T03:28:34;4.00;99.90
8824;DHT22;4448;50.904;4.694;2023-02-26T03:31:18;4.00;99.90
8824;DHT22;4448;50.904;4.694;2023-02-26T03:34:18;4.00;99.90
8824;DHT22;4448;50.904;4.694;2023-02-26T03:36:55;4.00;99.90
8824;DHT22;4448;50.904;4.694;2023-02-26T03:39:36;4.00;99.90
8824;DHT22;4448;50.904;4.694;2023-02-26T03:44:41;4.00;99.90
8824;DHT22;4448;50.904;4.694;2023-02-26T03:47:12;4.00;99.90
8824;DHT22;4448;50.904;4.694;2023-02-26T03:49:44;3.90;99.90
8824;DHT22;4448;50.904;4.694;2023-02-26T03:52:11;3.90;99.90
8824;DHT22;4448;50.904;4.694;2023-02-26T03:55:12;3.90;99.90
8824;DHT22;4448;50.904;4.694;2023-02-26T03:57:38;3.90;99.90
8824;DHT22;4448;50.904;4.694;2023-02-26T04:00:05;3.90;99.90
8824;DHT22;4448;50.904;4.694;2023-02-26T04:02:55;3.90;99.90
8824;DHT22;4448;50.904;4.694;2023-02-26T04:05:26;3.90;99.90
8824;DHT22;4448;50.904;4.694;2023-02-26T04:07:53;3.90;99.90
8824;DHT22;4448;50.904;4.694;2023-02-26T04:10:23;3.80;99.90
8824;DHT22;4448;50.904;4.694;2023-02-26T04:12:50;3.80;99.90
8824;DHT22;4448;50.904;4.694;2023-02-26T04:15:15;3.90;99.90
8824;DHT22;4448;50.904;4.694;2023-02-26T04:17:41;3.80;99.90
8824;DHT22;4448;50.904;4.694;2023-02-26T04:20:07;3.80;99.90
8824;DHT22;4448;50.904;4.694;2023-02-26T04:22:35;3.80;99.90
8824;DHT22;4448;50.904;4.694;2023-02-26T04:25:01;3.80;99.90
8824;DHT22;4448;50.904;4.694;2023-02-26T04:27:27;3.80;99.90
8824;DHT22;4448;50.904;4.694;2023-02-26T04:29:52;4.00;99.90
8824;DHT22;4448;50.904;4.694;2023-02-26T04:32:18;3.80;99.90
8824;DHT22;4448;50.904;4.694;2023-02-26T04:34:43;3.80;99.90
8824;DHT22;4448;50.904;4.694;2023-02-26T04:37:09;3.80;99.90
8824;DHT22;4448;50.904;4.694;2023-02-26T04:39:35;3.70;99.90
8824;DHT22;4448;50.904;4.694;2023-02-26T04:42:01;3.70;99.90
8824;DHT22;4448;50.904;4.694;2023-02-26T04:44:29;3.70;99.90
8824;DHT22;4448;50.904;4.694;2023-02-26T04:46:55;3.70;99.90
8824;DHT22;4448;50.904;4.694;2023-02-26T04:49:20;3.70;99.90
8824;DHT22;4448;50.904;4.694;2023-02-26T04:51:46;3.70;99.90
8824;DHT22;4448;50.904;4.694;2023-02-26T04:54:12;3.70;99.90
8824;DHT22;4448;50.904;4.694;2023-02-26T04:56:37;3.70;99.90
8824;DHT22;4448;50.904;4.694;2023-02-26T04:59:03;3.70;99.90
8824;DHT22;4448;50.904;4.694;2023-02-26T05:01:29;3.60;99.90
8824;DHT22;4448;50.904;4.694;2023-02-26T05:03:55;3.60;99.90
8824;DHT22;4448;50.904;4.694;2023-02-26T05:06:20;3.80;99.90
8824;DHT22;4448;50.904;4.694;2023-02-26T05:08:46;3.60;99.90
8824;DHT22;4448;50.904;4.694;2023-02-26T05:11:12;3.60;99.90
8824;DHT22;4448;50.904;4.694;2023-02-26T05:13:38;3.60;99.90
8824;DHT22;4448;50.904;4.694;2023-02-26T05:16:04;3.60;99.90
8824;DHT22;4448;50.904;4.694;2023-02-26T05:18:30;3.60;99.90
8824;DHT22;4448;50.904;4.694;2023-02-26T05:20:57;3.60;99.90
8824;DHT22;4448;50.904;4.694;2023-02-26T05:23:23;3.60;99.90
8824;DHT22;4448;50.904;4.694;2023-02-26T05:25:49;3.50;99.90
8824;DHT22;4448;50.904;4.694;2023-02-26T05:28:15;3.50;99.90
8824;DHT22;4448;50.904;4.694;2023-02-26T05:30:41;3.50;99.90
8824;DHT22;4448;50.904;4.694;2023-02-26T05:33:07;3.50;99.90
8824;DHT22;4448;50.904;4.694;2023-02-26T05:35:32;4.10;99.90
8824;DHT22;4448;50.904;4.694;2023-02-26T05:37:58;3.50;99.90
8824;DHT22;4448;50.904;4.694;2023-02-26T05:40:24;3.50;99.90
8824;DHT22;4448;50.904;4.694;2023-02-26T05:42:49;3.50;99.90
8824;DHT22;4448;50.904;4.694;2023-02-26T05:45:16;3.50;99.90
8824;DHT22;4448;50.904;4.694;2023-02-26T05:47:42;3.50;99.90
8824;DHT22;4448;50.904;4.694;2023-02-26T05:50:08;3.40;99.90
8824;DHT22;4448;50.904;4.694;2023-02-26T05:52:34;3.40;99.90
8824;DHT22;4448;50.904;4.694;2023-02-26T05:55:00;3.40;99.90
8824;DHT22;4448;50.904;4.694;2023-02-26T05:57:26;3.40;99.90
8824;DHT22;4448;50.904;4.694;2023-02-26T05:59:51;3.40;99.90
8824;DHT22;4448;50.904;4.694;2023-02-26T06:02:17;3.40;99.90
8824;DHT22;4448;50.904;4.694;2023-02-26T06:04:43;3.40;99.90
8824;DHT22;4448;50.904;4.694;2023-02-26T06:07:09;3.40;99.90
8824;DHT22;4448;50.904;4.694;2023-02-26T06:09:35;3.40;99.90
8824;DHT22;4448;50.904;4.694;2023-02-26T06:12:00;3.40;99.90
8824;DHT22;4448;50.904;4.694;2023-02-26T06:14:26;3.50;99.90
8824;DHT22;4448;50.904;4.694;2023-02-26T06:16:52;3.40;99.90
8824;DHT22;4448;50.904;4.694;2023-02-26T06:19:18;3.40;99.90
8824;DHT22;4448;50.904;4.694;2023-02-26T06:21:46;3.40;99.90
8824;DHT22;4448;50.904;4.694;2023-02-26T06:24:12;3.40;99.90
8824;DHT22;4448;50.904;4.694;2023-02-26T06:26:38;3.30;99.90
8824;DHT22;4448;50.904;4.694;2023-02-26T06:29:03;3.30;99.90
8824;DHT22;4448;50.904;4.694;2023-02-26T06:31:29;3.20;99.90
8824;DHT22;4448;50.904;4.694;2023-02-26T06:33:54;3.30;99.90
8824;DHT22;4448;50.904;4.694;2023-02-26T06:36:20;3.30;99.90
8824;DHT22;4448;50.904;4.694;2023-02-26T06:38:46;3.30;99.90
8824;DHT22;4448;50.904;4.694;2023-02-26T06:41:11;3.30;99.90
8824;DHT22;4448;50.904;4.694;2023-02-26T06:43:38;3.30;99.90
8824;DHT22;4448;50.904;4.694;2023-02-26T06:46:04;3.30;99.90
8824;DHT22;4448;50.904;4.694;2023-02-26T06:48:30;3.30;99.90
8824;DHT22;4448;50.904;4.694;2023-02-26T06:50:55;3.30;99.90
8824;DHT22;4448;50.904;4.694;2023-02-26T06:53:21;3.30;99.90
8824;DHT22;4448;50.904;4.694;2023-02-26T06:55:51;3.30;99.90
8824;DHT22;4448;50.904;4.694;2023-02-26T06:58:17;3.30;99.90
8824;DHT22;4448;50.904;4.694;2023-02-26T07:00:44;3.30;99.90
8824;DHT22;4448;50.904;4.694;2023-02-26T07:03:12;3.30;99.90
8824;DHT22;4448;50.904;4.694;2023-02-26T07:05:38;3.30;99.90
8824;DHT22;4448;50.904;4.694;2023-02-26T07:08:04;3.30;99.90
8824;DHT22;4448;50.904;4.694;2023-02-26T07:10:32;3.30;99.90
8824;DHT22;4448;50.904;4.694;2023-02-26T07:12:58;3.30;99.90
8824;DHT22;4448;50.904;4.694;2023-02-26T07:15:24;3.30;99.90
8824;DHT22;4448;50.904;4.694;2023-02-26T07:17:49;3.30;99.90
8824;DHT22;4448;50.904;4.694;2023-02-26T07:20:15;3.30;99.90
8824;DHT22;4448;50.904;4.694;2023-02-26T07:22:43;3.30;99.90
8824;DHT22;4448;50.904;4.694;2023-02-26T07:25:09;3.30;99.90
8824;DHT22;4448;50.904;4.694;2023-02-26T07:27:36;3.30;99.90
8824;DHT22;4448;50.904;4.694;2023-02-26T07:30:03;3.30;99.90
8824;DHT22;4448;50.904;4.694;2023-02-26T07:32:29;3.40;99.90
8824;DHT22;4448;50.904;4.694;2023-02-26T07:34:55;3.40;99.90
8824;DHT22;4448;50.904;4.694;2023-02-26T07:37:21;3.40;99.90
8824;DHT22;4448;50.904;4.694;2023-02-26T07:39:46;3.40;99.90
8824;DHT22;4448;50.904;4.694;2023-02-26T07:42:12;3.40;99.90
8824;DHT22;4448;50.904;4.694;2023-02-26T07:44:38;3.40;99.90
8824;DHT22;4448;50.904;4.694;2023-02-26T07:47:04;3.40;99.90
8824;DHT22;4448;50.904;4.694;2023-02-26T07:49:30;3.40;99.90
8824;DHT22;4448;50.904;4.694;2023-02-26T07:51:57;3.40;99.90
8824;DHT22;4448;50.904;4.694;2023-02-26T07:54:22;3.40;99.90
8824;DHT22;4448;50.904;4.694;2023-02-26T07:56:48;3.40;99.90
8824;DHT22;4448;50.904;4.694;2023-02-26T07:59:15;3.40;99.90
8824;DHT22;4448;50.904;4.694;2023-02-26T08:01:40;3.50;99.90
8824;DHT22;4448;50.904;4.694;2023-02-26T08:04:06;3.50;99.90
8824;DHT22;4448;50.904;4.694;2023-02-26T08:06:32;3.50;99.90
8824;DHT22;4448;50.904;4.694;2023-02-26T08:08:57;3.50;99.90
8824;DHT22;4448;50.904;4.694;2023-02-26T08:11:23;3.60;99.90
8824;DHT22;4448;50.904;4.694;2023-02-26T08:13:49;3.60;99.90
8824;DHT22;4448;50.904;4.694;2023-02-26T08:16:14;3.60;99.90
8824;DHT22;4448;50.904;4.694;2023-02-26T08:18:40;3.70;99.90
8824;DHT22;4448;50.904;4.694;2023-02-26T08:21:06;3.70;99.90
8824;DHT22;4448;50.904;4.694;2023-02-26T08:23:32;3.70;99.90
8824;DHT22;4448;50.904;4.694;2023-02-26T08:26:06;3.70;99.90
8824;DHT22;4448;50.904;4.694;2023-02-26T08:28:32;3.80;99.90
8824;DHT22;4448;50.904;4.694;2023-02-26T08:30:59;3.80;99.90
8824;DHT22;4448;50.904;4.694;2023-02-26T08:33:25;3.80;99.90
8824;DHT22;4448;50.904;4.694;2023-02-26T08:35:50;3.90;99.90
8824;DHT22;4448;50.904;4.694;2023-02-26T08:38:16;3.90;99.90
8824;DHT22;4448;50.904;4.694;2023-02-26T08:40:42;4.00;99.90
8824;DHT22;4448;50.904;4.694;2023-02-26T08:43:08;4.00;99.90
8824;DHT22;4448;50.904;4.694;2023-02-26T08:45:36;4.00;99.90
8824;DHT22;4448;50.904;4.694;2023-02-26T08:48:01;4.00;99.90
8824;DHT22;4448;50.904;4.694;2023-02-26T08:50:27;4.10;99.90
8824;DHT22;4448;50.904;4.694;2023-02-26T08:52:53;4.10;99.90
8824;DHT22;4448;50.904;4.694;2023-02-26T08:55:19;4.20;99.90
8824;DHT22;4448;50.904;4.694;2023-02-26T08:57:45;4.20;99.90
8824;DHT22;4448;50.904;4.694;2023-02-26T09:00:11;4.20;99.90
8824;DHT22;4448;50.904;4.694;2023-02-26T09:02:38;4.30;99.90
8824;DHT22;4448;50.904;4.694;2023-02-26T09:05:04;4.30;99.90
8824;DHT22;4448;50.904;4.694;2023-02-26T09:07:30;4.30;99.90
8824;DHT22;4448;50.904;4.694;2023-02-26T09:09:56;4.30;99.90
8824;DHT22;4448;50.904;4.694;2023-02-26T09:12:21;4.30;99.90
8824;DHT22;4448;50.904;4.694;2023-02-26T09:14:47;4.40;99.90
8824;DHT22;4448;50.904;4.694;2023-02-26T09:17:13;4.40;99.90
8824;DHT22;4448;50.904;4.694;2023-02-26T09:19:39;4.50;99.90
8824;DHT22;4448;50.904;4.694;2023-02-26T09:22:04;4.50;99.90
8824;DHT22;4448;50.904;4.694;2023-02-26T09:24:30;4.50;99.90
8824;DHT22;4448;50.904;4.694;2023-02-26T09:26:56;4.60;99.90
8824;DHT22;4448;50.904;4.694;2023-02-26T09:29:21;4.60;99.90
8824;DHT22;4448;50.904;4.694;2023-02-26T09:31:47;4.70;99.90
8824;DHT22;4448;50.904;4.694;2023-02-26T09:34:12;4.80;99.90
8824;DHT22;4448;50.904;4.694;2023-02-26T09:36:39;4.80;99.90
8824;DHT22;4448;50.904;4.694;2023-02-26T09:39:06;4.90;99.90
8824;DHT22;4448;50.904;4.694;2023-02-26T09:41:40;4.80;99.90
8824;DHT22;4448;50.904;4.694;2023-02-26T09:47:02;4.80;99.90
8824;DHT22;4448;50.904;4.694;2023-02-26T09:49:55;4.90;99.90
8824;DHT22;4448;50.904;4.694;2023-02-26T09:52:51;5.00;99.90
8824;DHT22;4448;50.904;4.694;2023-02-26T09:55:23;5.10;99.90
8824;DHT22;4448;50.904;4.694;2023-02-26T09:57:55;5.10;99.90
8824;DHT22;4448;50.904;4.694;2023-02-26T10:14:36;5.40;99.90
8824;DHT22;4448;50.904;4.694;2023-02-26T10:19:49;5.40;99.90
8824;DHT22;4448;50.904;4.694;2023-02-26T10:25:28;5.50;99.90
8824;DHT22;4448;50.904;4.694;2023-02-26T10:30:43;5.50;99.90
8824;DHT22;4448;50.904;4.694;2023-02-26T10:33:46;5.60;99.90
8824;DHT22;4448;50.904;4.694;2023-02-26T10:36:25;5.60;99.90
8824;DHT22;4448;50.904;4.694;2023-02-26T10:39:01;5.70;99.90
8824;DHT22;4448;50.904;4.694;2023-02-26T10:41:30;5.80;99.90
8824;DHT22;4448;50.904;4.694;2023-02-26T10:49:29;5.90;99.90
8824;DHT22;4448;50.904;4.694;2023-02-26T10:52:04;6.00;99.90
8824;DHT22;4448;50.904;4.694;2023-02-26T10:54:36;6.00;99.90
8824;DHT22;4448;50.904;4.694;2023-02-26T10:57:03;6.00;99.90
8824;DHT22;4448;50.904;4.694;2023-02-26T10:59:29;6.20;99.90
8824;DHT22;4448;50.904;4.694;2023-02-26T11:01:56;6.30;99.90
8824;DHT22;4448;50.904;4.694;2023-02-26T11:04:23;6.40;99.90
8824;DHT22;4448;50.904;4.694;2023-02-26T11:06:56;6.50;99.90
8824;DHT22;4448;50.904;4.694;2023-02-26T11:09:25;6.50;99.90
8824;DHT22;4448;50.904;4.694;2023-02-26T11:14:19;6.60;99.90
8824;DHT22;4448;50.904;4.694;2023-02-26T11:16:53;6.60;99.90
8824;DHT22;4448;50.904;4.694;2023-02-26T11:19:42;6.60;99.90
8824;DHT22;4448;50.904;4.694;2023-02-26T11:22:13;6.60;99.90
8824;DHT22;4448;50.904;4.694;2023-02-26T11:24:43;6.50;99.90
8824;DHT22;4448;50.904;4.694;2023-02-26T11:27:14;6.50;99.90
8824;DHT22;4448;50.904;4.694;2023-02-26T11:29:44;6.50;99.90
8824;DHT22;4448;50.904;4.694;2023-02-26T11:32:21;6.50;99.90
8824;DHT22;4448;50.904;4.694;2023-02-26T11:34:49;6.50;99.90
8824;DHT22;4448;50.904;4.694;2023-02-26T11:37:35;6.50;99.90
8824;DHT22;4448;50.904;4.694;2023-02-26T11:40:14;6.50;99.90
8824;DHT22;4448;50.904;4.694;2023-02-26T11:42:48;6.40;99.90
8824;DHT22;4448;50.904;4.694;2023-02-26T11:45:16;6.30;99.90
8824;DHT22;4448;50.904;4.694;2023-02-26T11:47:43;6.30;99.90
8824;DHT22;4448;50.904;4.694;2023-02-26T11:50:16;6.20;99.90
8824;DHT22;4448;50.904;4.694;2023-02-26T11:52:45;6.10;99.90
8824;DHT22;4448;50.904;4.694;2023-02-26T11:55:29;6.00;99.90
8824;DHT22;4448;50.904;4.694;2023-02-26T11:57:56;6.00;99.90
8824;DHT22;4448;50.904;4.694;2023-02-26T12:00:36;5.90;99.90
8824;DHT22;4448;50.904;4.694;2023-02-26T12:03:06;5.90;99.90
8824;DHT22;4448;50.904;4.694;2023-02-26T12:05:37;5.90;99.90
8824;DHT22;4448;50.904;4.694;2023-02-26T12:08:11;5.90;99.90
8824;DHT22;4448;50.904;4.694;2023-02-26T12:10:45;5.90;99.90
8824;DHT22;4448;50.904;4.694;2023-02-26T12:13:23;5.90;99.90
8824;DHT22;4448;50.904;4.694;2023-02-26T12:19:10;6.10;99.90
8824;DHT22;4448;50.904;4.694;2023-02-26T12:35:36;7.10;99.90
8824;DHT22;4448;50.904;4.694;2023-02-26T12:40:59;7.10;99.90
8824;DHT22;4448;50.904;4.694;2023-02-26T12:52:20;7.20;99.90
8824;DHT22;4448;50.904;4.694;2023-02-26T12:58:12;7.10;99.90
8824;DHT22;4448;50.904;4.694;2023-02-26T13:12:34;7.30;99.90
8824;DHT22;4448;50.904;4.694;2023-02-26T13:18:07;7.30;99.90
8824;DHT22;4448;50.904;4.694;2023-02-26T13:20:36;7.40;99.90
8824;DHT22;4448;50.904;4.694;2023-02-26T13:23:11;7.40;99.90
8824;DHT22;4448;50.904;4.694;2023-02-26T13:25:52;7.40;99.90
8824;DHT22;4448;50.904;4.694;2023-02-26T13:31:18;7.40;99.90
8824;DHT22;4448;50.904;4.694;2023-02-26T13:33:46;7.40;99.90
8824;DHT22;4448;50.904;4.694;2023-02-26T13:36:14;7.40;99.90
8824;DHT22;4448;50.904;4.694;2023-02-26T13:44:47;7.10;99.90
8824;DHT22;4448;50.904;4.694;2023-02-26T13:52:53;7.00;99.90
8824;DHT22;4448;50.904;4.694;2023-02-26T14:00:57;7.00;99.90
8824;DHT22;4448;50.904;4.694;2023-02-26T14:08:43;7.00;99.90
8824;DHT22;4448;50.904;4.694;2023-02-26T14:14:17;6.90;99.90
8824;DHT22;4448;50.904;4.694;2023-02-26T14:17:35;7.00;99.90
8824;DHT22;4448;50.904;4.694;2023-02-26T14:22:27;7.00;99.90
8824;DHT22;4448;50.904;4.694;2023-02-26T14:27:43;7.00;99.90
8824;DHT22;4448;50.904;4.694;2023-02-26T14:35:41;6.90;99.90
8824;DHT22;4448;50.904;4.694;2023-02-26T14:38:34;7.00;99.90
8824;DHT22;4448;50.904;4.694;2023-02-26T14:41:33;7.00;99.90
8824;DHT22;4448;50.904;4.694;2023-02-26T14:44:10;7.00;99.90
8824;DHT22;4448;50.904;4.694;2023-02-26T14:46:38;7.00;99.90
8824;DHT22;4448;50.904;4.694;2023-02-26T14:49:05;7.00;99.90
8824;DHT22;4448;50.904;4.694;2023-02-26T14:51:53;7.10;99.90
8824;DHT22;4448;50.904;4.694;2023-02-26T15:08:45;7.00;99.90
8824;DHT22;4448;50.904;4.694;2023-02-26T15:12:16;7.00;99.90
8824;DHT22;4448;50.904;4.694;2023-02-26T15:17:08;6.90;99.90
8824;DHT22;4448;50.904;4.694;2023-02-26T15:23:11;6.80;99.90
8824;DHT22;4448;50.904;4.694;2023-02-26T15:25:43;6.80;99.90
8824;DHT22;4448;50.904;4.694;2023-02-26T15:28:26;6.80;99.90
8824;DHT22;4448;50.904;4.694;2023-02-26T15:30:53;6.70;99.90
8824;DHT22;4448;50.904;4.694;2023-02-26T15:33:23;6.90;99.90
8824;DHT22;4448;50.904;4.694;2023-02-26T15:35:50;6.70;99.90
8824;DHT22;4448;50.904;4.694;2023-02-26T15:38:17;6.60;99.90
8824;DHT22;4448;50.904;4.694;2023-02-26T15:40:43;6.60;99.90
8824;DHT22;4448;50.904;4.694;2023-02-26T15:43:14;6.60;99.90
8824;DHT22;4448;50.904;4.694;2023-02-26T15:45:43;6.60;99.90
8824;DHT22;4448;50.904;4.694;2023-02-26T15:48:19;6.50;99.90
8824;DHT22;4448;50.904;4.694;2023-02-26T15:50:51;6.50;99.90
8824;DHT22;4448;50.904;4.694;2023-02-26T15:53:50;6.50;99.90
8824;DHT22;4448;50.904;4.694;2023-02-26T15:56:23;6.50;99.90
8824;DHT22;4448;50.904;4.694;2023-02-26T15:59:02;6.40;99.90
8824;DHT22;4448;50.904;4.694;2023-02-26T16:01:29;6.40;99.90
8824;DHT22;4448;50.904;4.694;2023-02-26T16:03:58;6.40;99.90
8824;DHT22;4448;50.904;4.694;2023-02-26T16:06:40;6.40;99.90
8824;DHT22;4448;50.904;4.694;2023-02-26T16:09:13;6.40;99.90
8824;DHT22;4448;50.904;4.694;2023-02-26T16:11:40;6.30;99.90
8824;DHT22;4448;50.904;4.694;2023-02-26T16:14:17;6.30;99.90
8824;DHT22;4448;50.904;4.694;2023-02-26T16:16:48;6.30;99.90
8824;DHT22;4448;50.904;4.694;2023-02-26T16:19:17;6.30;99.90
8824;DHT22;4448;50.904;4.694;2023-02-26T16:21:46;6.30;99.90
8824;DHT22;4448;50.904;4.694;2023-02-26T16:24:19;6.20;99.90
8824;DHT22;4448;50.904;4.694;2023-02-26T16:26:56;6.20;99.90
8824;DHT22;4448;50.904;4.694;2023-02-26T16:29:29;6.20;99.90
8824;DHT22;4448;50.904;4.694;2023-02-26T16:31:58;6.20;99.90
8824;DHT22;4448;50.904;4.694;2023-02-26T16:34:49;6.20;99.90
8824;DHT22;4448;50.904;4.694;2023-02-26T16:40:26;6.20;99.90
8824;DHT22;4448;50.904;4.694;2023-02-26T16:42:59;6.10;99.90
8824;DHT22;4448;50.904;4.694;2023-02-26T16:45:43;6.10;99.90
8824;DHT22;4448;50.904;4.694;2023-02-26T16:48:25;6.10;99.90
8824;DHT22;4448;50.904;4.694;2023-02-26T16:51:09;6.10;99.90
8824;DHT22;4448;50.904;4.694;2023-02-26T16:53:51;6.10;99.90
8824;DHT22;4448;50.904;4.694;2023-02-26T16:56:21;6.10;99.90
8824;DHT22;4448;50.904;4.694;2023-02-26T16:58:54;6.00;99.90
8824;DHT22;4448;50.904;4.694;2023-02-26T17:01:21;6.00;99.90
8824;DHT22;4448;50.904;4.694;2023-02-26T17:03:51;6.00;99.90
8824;DHT22;4448;50.904;4.694;2023-02-26T17:06:21;6.00;99.90
8824;DHT22;4448;50.904;4.694;2023-02-26T17:08:52;6.00;99.90
8824;DHT22;4448;50.904;4.694;2023-02-26T17:14:15;5.90;99.90
8824;DHT22;4448;50.904;4.694;2023-02-26T17:16:47;5.90;99.90
8824;DHT22;4448;50.904;4.694;2023-02-26T17:19:13;5.80;99.90
8824;DHT22;4448;50.904;4.694;2023-02-26T17:21:54;5.80;99.90
8824;DHT22;4448;50.904;4.694;2023-02-26T17:24:36;5.80;99.90
8824;DHT22;4448;50.904;4.694;2023-02-26T17:27:09;5.80;99.90
8824;DHT22;4448;50.904;4.694;2023-02-26T17:29:39;5.80;99.90
8824;DHT22;4448;50.904;4.694;2023-02-26T17:32:18;5.80;99.90
8824;DHT22;4448;50.904;4.694;2023-02-26T17:34:44;5.80;99.90
8824;DHT22;4448;50.904;4.694;2023-02-26T17:37:16;5.80;99.90
8824;DHT22;4448;50.904;4.694;2023-02-26T17:39:42;5.80;99.90
8824;DHT22;4448;50.904;4.694;2023-02-26T17:42:15;5.80;99.90
8824;DHT22;4448;50.904;4.694;2023-02-26T17:44:42;5.80;99.90
8824;DHT22;4448;50.904;4.694;2023-02-26T17:47:14;5.80;99.90
8824;DHT22;4448;50.904;4.694;2023-02-26T17:49:41;5.80;99.90
8824;DHT22;4448;50.904;4.694;2023-02-26T17:52:07;5.70;99.90
8824;DHT22;4448;50.904;4.694;2023-02-26T17:54:35;5.70;99.90
8824;DHT22;4448;50.904;4.694;2023-02-26T17:57:01;5.70;99.90
8824;DHT22;4448;50.904;4.694;2023-02-26T17:59:28;5.70;99.90
8824;DHT22;4448;50.904;4.694;2023-02-26T18:01:55;5.70;99.90
8824;DHT22;4448;50.904;4.694;2023-02-26T18:04:21;5.60;99.90
8824;DHT22;4448;50.904;4.694;2023-02-26T18:06:47;5.70;99.90
8824;DHT22;4448;50.904;4.694;2023-02-26T18:09:14;5.60;99.90
8824;DHT22;4448;50.904;4.694;2023-02-26T18:11:41;5.60;99.90
8824;DHT22;4448;50.904;4.694;2023-02-26T18:14:08;5.60;99.90
8824;DHT22;4448;50.904;4.694;2023-02-26T18:16:37;5.60;99.90
8824;DHT22;4448;50.904;4.694;2023-02-26T18:19:03;5.60;99.90
8824;DHT22;4448;50.904;4.694;2023-02-26T18:21:30;5.50;99.90
8824;DHT22;4448;50.904;4.694;2023-02-26T18:23:55;5.50;99.90
8824;DHT22;4448;50.904;4.694;2023-02-26T18:26:23;5.50;99.90
8824;DHT22;4448;50.904;4.694;2023-02-26T18:28:52;5.50;99.90
8824;DHT22;4448;50.904;4.694;2023-02-26T18:31:20;5.50;99.90
8824;DHT22;4448;50.904;4.694;2023-02-26T18:33:45;5.40;99.90
8824;DHT22;4448;50.904;4.694;2023-02-26T18:36:18;5.50;99.90
8824;DHT22;4448;50.904;4.694;2023-02-26T18:38:45;5.40;99.90
8824;DHT22;4448;50.904;4.694;2023-02-26T18:41:11;5.40;99.90
8824;DHT22;4448;50.904;4.694;2023-02-26T18:43:36;5.40;99.90
8824;DHT22;4448;50.904;4.694;2023-02-26T18:46:02;5.40;99.90
8824;DHT22;4448;50.904;4.694;2023-02-26T18:48:28;5.30;99.90
8824;DHT22;4448;50.904;4.694;2023-02-26T18:50:53;5.30;99.90
8824;DHT22;4448;50.904;4.694;2023-02-26T18:53:21;5.30;99.90
8824;DHT22;4448;50.904;4.694;2023-02-26T18:55:51;5.30;99.90
8824;DHT22;4448;50.904;4.694;2023-02-26T18:58:18;5.20;99.90
8824;DHT22;4448;50.904;4.694;2023-02-26T19:00:44;5.20;99.90
8824;DHT22;4448;50.904;4.694;2023-02-26T19:03:10;5.20;99.90
8824;DHT22;4448;50.904;4.694;2023-02-26T19:05:36;5.20;99.90
8824;DHT22;4448;50.904;4.694;2023-02-26T19:08:04;5.20;99.90
8824;DHT22;4448;50.904;4.694;2023-02-26T19:10:30;5.10;99.90
8824;DHT22;4448;50.904;4.694;2023-02-26T19:12:56;5.10;99.90
8824;DHT22;4448;50.904;4.694;2023-02-26T19:15:23;5.10;99.90
8824;DHT22;4448;50.904;4.694;2023-02-26T19:17:50;5.10;99.90
8824;DHT22;4448;50.904;4.694;2023-02-26T19:20:16;5.10;99.90
8824;DHT22;4448;50.904;4.694;2023-02-26T19:22:43;5.10;99.90
8824;DHT22;4448;50.904;4.694;2023-02-26T19:25:13;5.10;99.90
8824;DHT22;4448;50.904;4.694;2023-02-26T19:27:39;5.10;99.90
8824;DHT22;4448;50.904;4.694;2023-02-26T19:30:06;5.10;99.90
8824;DHT22;4448;50.904;4.694;2023-02-26T19:32:32;5.00;99.90
8824;DHT22;4448;50.904;4.694;2023-02-26T19:34:57;5.00;99.90
8824;DHT22;4448;50.904;4.694;2023-02-26T19:37:23;5.00;99.90
8824;DHT22;4448;50.904;4.694;2023-02-26T19:39:49;5.00;99.90
8824;DHT22;4448;50.904;4.694;2023-02-26T19:42:14;5.00;99.90
8824;DHT22;4448;50.904;4.694;2023-02-26T19:44:40;5.00;99.90
8824;DHT22;4448;50.904;4.694;2023-02-26T19:47:06;4.90;99.90